Time;durP1;ratioP1;P1;durP2;ratioP2;P2;SDS_P1;SDS_P2;PMS_P1;PMS_P2;Temp;Humidity;BMP_temperature;BMP_pressure;BME280_temperature;BME280_humidity;BME280_pressure;Samples;Min_cycle;Max_cycle;Signal;HPM_P1;HPM_P2
2021/12/26 00:00:25;;;;;;;9.07;4.72;;;;;;;;;;5075351;28;20048;-90
2021/12/26 00:03:00;;;;;;;7.93;4.25;;;;;;;;;;5058001;28;20048;-89
2021/12/26 00:05:26;;;;;;;7.00;3.20;;;;;;;;;;5028345;28;20040;-89
2021/12/26 00:07:52;;;;;;;7.00;2.97;;;;;;;;;;5047718;28;20051;-89
2021/12/26 00:10:20;;;;;;;7.45;3.45;;;;;;;;;;5073924;28;20041;-88
2021/12/26 00:12:47;;;;;;;7.18;3.00;;;;;;;;;;5056841;28;20044;-88
2021/12/26 00:15:13;;;;;;;7.43;3.30;;;;;;;;;;5048523;28;20046;-89
2021/12/26 00:17:42;;;;;;;9.48;3.53;;;;;;;;;;5049803;28;20039;-90
2021/12/26 00:20:14;;;;;;;7.53;3.55;;;;;;;;;;5024756;28;20044;-88
2021/12/26 00:22:40;;;;;;;7.95;2.90;;;;;;;;;;5048011;28;20041;-89
2021/12/26 00:25:09;;;;;;;8.02;3.25;;;;;;;;;;5035969;28;20455;-89
2021/12/26 00:27:36;;;;;;;7.97;3.20;;;;;;;;;;5039682;28;20052;-89
2021/12/26 00:30:04;;;;;;;6.60;2.72;;;;;;;;;;5074054;28;20086;-89
2021/12/26 00:32:30;;;;;;;6.18;2.50;;;;;;;;;;5056710;28;20044;-86
2021/12/26 00:34:59;;;;;;;7.10;3.25;;;;;;;;;;5056897;28;20408;-89
2021/12/26 00:37:25;;;;;;;7.93;3.58;;;;;;;;;;5073529;28;20519;-90
2021/12/26 00:39:51;;;;;;;8.02;2.67;;;;;;;;;;5073356;28;20044;-89
2021/12/26 00:42:17;;;;;;;12.07;3.60;;;;;;;;;;5056055;28;20041;-90
2021/12/26 00:44:43;;;;;;;7.65;3.13;;;;;;;;;;5039203;28;20042;-87
2021/12/26 00:47:14;;;;;;;6.93;2.92;;;;;;;;;;5039482;28;20036;-89
2021/12/26 00:49:41;;;;;;;6.88;3.45;;;;;;;;;;5039202;28;20040;-89
2021/12/26 00:52:07;;;;;;;6.50;3.10;;;;;;;;;;5023113;28;20040;-90
2021/12/26 00:54:34;;;;;;;6.60;3.20;;;;;;;;;;5039553;28;20044;-90
2021/12/26 00:57:00;;;;;;;6.18;2.83;;;;;;;;;;5056035;28;20044;-90
2021/12/26 00:59:29;;;;;;;6.45;2.75;;;;;;;;;;5056112;28;20044;-90
2021/12/26 01:01:56;;;;;;;6.88;2.53;;;;;;;;;;5039646;28;20048;-90
2021/12/26 01:04:24;;;;;;;8.70;3.50;;;;;;;;;;5039327;28;20075;-90
2021/12/26 01:06:54;;;;;;;9.38;2.80;;;;;;;;;;5054515;28;20043;-90
2021/12/26 01:09:25;;;;;;;5.32;2.28;;;;;;;;;;5054436;28;20374;-90
2021/12/26 01:11:55;;;;;;;6.55;2.50;;;;;;;;;;5039835;28;20497;-89
2021/12/26 01:14:28;;;;;;;7.07;2.50;;;;;;;;;;5040112;28;20052;-88
2021/12/26 01:17:03;;;;;;;7.40;2.70;;;;;;;;;;5055736;28;20045;-86
2021/12/26 01:19:42;;;;;;;5.95;2.30;;;;;;;;;;5039486;28;20037;-89
2021/12/26 01:22:09;;;;;;;5.63;2.30;;;;;;;;;;5039226;28;20046;-89
2021/12/26 01:24:35;;;;;;;5.72;2.20;;;;;;;;;;5031227;28;20040;-89
2021/12/26 01:27:02;;;;;;;6.32;2.75;;;;;;;;;;5023101;28;20036;-88
2021/12/26 01:29:28;;;;;;;6.22;2.80;;;;;;;;;;5073885;28;20040;-89
2021/12/26 01:31:56;;;;;;;7.53;2.60;;;;;;;;;;5039770;28;20132;-89
2021/12/26 01:34:22;;;;;;;6.18;2.28;;;;;;;;;;5056106;28;20047;-88
2021/12/26 01:36:48;;;;;;;6.32;2.20;;;;;;;;;;5055251;28;20123;-89
2021/12/26 01:39:14;;;;;;;7.47;2.78;;;;;;;;;;5039571;28;20044;-89
2021/12/26 01:41:42;;;;;;;8.27;2.10;;;;;;;;;;5039528;28;20044;-89
2021/12/26 01:44:11;;;;;;;5.07;2.10;;;;;;;;;;5054559;28;20094;-88
2021/12/26 01:46:41;;;;;;;9.07;2.40;;;;;;;;;;5037705;28;20075;-88
2021/12/26 01:49:09;;;;;;;6.50;2.40;;;;;;;;;;5072145;28;20116;-88
2021/12/26 01:51:35;;;;;;;8.68;2.80;;;;;;;;;;5051894;28;20052;-89
2021/12/26 01:54:06;;;;;;;6.93;2.47;;;;;;;;;;5056421;28;20048;-89
2021/12/26 01:56:35;;;;;;;4.88;1.73;;;;;;;;;;5039749;28;20054;-89
2021/12/26 01:59:01;;;;;;;6.40;2.53;;;;;;;;;;5056308;28;20127;-89
2021/12/26 02:01:28;;;;;;;7.57;2.05;;;;;;;;;;5039286;28;20041;-89
2021/12/26 02:03:54;;;;;;;6.35;2.15;;;;;;;;;;5056150;28;20089;-89
2021/12/26 02:06:21;;;;;;;5.32;1.98;;;;;;;;;;5040301;28;20165;-90
2021/12/26 02:08:47;;;;;;;6.45;2.20;;;;;;;;;;5055390;28;20040;-89
2021/12/26 02:11:13;;;;;;;4.25;1.70;;;;;;;;;;5047942;28;20280;-90
2021/12/26 02:13:39;;;;;;;4.55;1.85;;;;;;;;;;5077301;28;20032;-90
2021/12/26 02:16:06;;;;;;;6.40;2.33;;;;;;;;;;5059837;28;20048;-90
2021/12/26 02:18:32;;;;;;;5.35;2.10;;;;;;;;;;5088223;28;20488;-88
2021/12/26 02:23:56;;;;;;;6.22;2.45;;;;;;;;;;5058778;28;20051;-89
2021/12/26 02:29:07;;;;;;;5.70;2.22;;;;;;;;;;5056979;28;20036;-89
2021/12/26 02:31:33;;;;;;;8.00;2.85;;;;;;;;;;5058062;28;20407;-89
2021/12/26 02:33:59;;;;;;;4.97;2.10;;;;;;;;;;5058283;28;20055;-87
2021/12/26 02:36:25;;;;;;;4.78;1.92;;;;;;;;;;5042207;28;20135;-89
2021/12/26 02:38:51;;;;;;;6.75;2.47;;;;;;;;;;5058270;28;20075;-89
2021/12/26 02:41:20;;;;;;;5.82;2.05;;;;;;;;;;5057389;28;20044;-87
2021/12/26 02:43:46;;;;;;;5.70;2.10;;;;;;;;;;5041065;28;20055;-89
2021/12/26 02:46:12;;;;;;;4.40;1.90;;;;;;;;;;5033589;28;20048;-88
2021/12/26 02:48:39;;;;;;;7.10;2.97;;;;;;;;;;5040642;28;20036;-89
2021/12/26 02:51:05;;;;;;;5.88;2.17;;;;;;;;;;5039979;28;20097;-88
2021/12/26 02:53:34;;;;;;;4.68;1.65;;;;;;;;;;5038902;28;20036;-89
2021/12/26 02:56:01;;;;;;;7.78;2.63;;;;;;;;;;5040755;28;20068;-88
2021/12/26 02:58:29;;;;;;;5.70;2.00;;;;;;;;;;5041521;28;20076;-91
2021/12/26 03:01:00;;;;;;;5.53;2.15;;;;;;;;;;5043491;28;20059;-89
2021/12/26 03:03:27;;;;;;;5.85;2.10;;;;;;;;;;5064243;28;20078;-90
2021/12/26 03:06:22;;;;;;;7.22;2.22;;;;;;;;;;5076947;28;20093;-88
2021/12/26 03:08:49;;;;;;;4.78;1.48;;;;;;;;;;5090416;28;20126;-90
2021/12/26 03:11:15;;;;;;;4.93;2.00;;;;;;;;;;5058556;28;20089;-88
2021/12/26 03:13:41;;;;;;;4.95;2.00;;;;;;;;;;5076569;28;20044;-89
2021/12/26 03:16:07;;;;;;;5.78;1.70;;;;;;;;;;5094337;28;20075;-90
2021/12/26 03:18:33;;;;;;;4.18;1.73;;;;;;;;;;5057757;28;20043;-89
2021/12/26 03:21:03;;;;;;;7.05;2.35;;;;;;;;;;5074144;28;20123;-89
2021/12/26 03:23:29;;;;;;;8.85;1.90;;;;;;;;;;5079975;28;20044;-89
2021/12/26 03:25:56;;;;;;;4.70;1.75;;;;;;;;;;5044627;28;20102;-90
2021/12/26 03:28:22;;;;;;;4.93;1.73;;;;;;;;;;5029158;28;20128;-89
2021/12/26 03:30:50;;;;;;;4.90;2.00;;;;;;;;;;5056370;28;20040;-90
2021/12/26 03:33:16;;;;;;;7.60;2.45;;;;;;;;;;5037943;28;20059;-89
2021/12/26 03:35:42;;;;;;;4.88;1.67;;;;;;;;;;5042796;28;20048;-89
2021/12/26 03:38:09;;;;;;;5.25;2.03;;;;;;;;;;5057825;28;20044;-89
2021/12/26 03:40:36;;;;;;;5.93;1.98;;;;;;;;;;5059238;28;20044;-90
2021/12/26 03:43:02;;;;;;;5.60;2.03;;;;;;;;;;5059058;28;20044;-90
2021/12/26 03:45:28;;;;;;;5.93;2.15;;;;;;;;;;5057312;28;20515;-89
2021/12/26 03:47:54;;;;;;;6.65;1.85;;;;;;;;;;5056561;28;20131;-88
2021/12/26 03:50:22;;;;;;;4.47;1.55;;;;;;;;;;5041948;28;20041;-90
2021/12/26 03:52:51;;;;;;;6.70;1.65;;;;;;;;;;5057863;28;20493;-87
2021/12/26 03:55:20;;;;;;;5.15;1.83;;;;;;;;;;5057165;28;20048;-89
2021/12/26 03:57:47;;;;;;;6.45;2.10;;;;;;;;;;5057128;28;20045;-88
2021/12/26 04:00:14;;;;;;;4.43;1.50;;;;;;;;;;5057177;28;20059;-89
2021/12/26 04:02:41;;;;;;;6.65;1.83;;;;;;;;;;5057023;28;20044;-90
2021/12/26 04:05:08;;;;;;;4.15;1.77;;;;;;;;;;5057701;28;20056;-89
2021/12/26 04:07:34;;;;;;;4.93;1.73;;;;;;;;;;5040640;28;20473;-89
2021/12/26 04:10:00;;;;;;;8.05;1.98;;;;;;;;;;5073768;28;20051;-89
2021/12/26 04:12:35;;;;;;;5.53;1.60;;;;;;;;;;5040171;28;20045;-89
2021/12/26 04:15:01;;;;;;;5.20;2.05;;;;;;;;;;5040551;28;20044;-90
2021/12/26 04:17:27;;;;;;;6.60;1.67;;;;;;;;;;5040743;28;20135;-87
2021/12/26 04:19:53;;;;;;;5.15;1.80;;;;;;;;;;5030018;28;20041;-89
2021/12/26 04:22:19;;;;;;;4.93;1.50;;;;;;;;;;5033070;28;20032;-89
2021/12/26 04:24:45;;;;;;;3.95;1.52;;;;;;;;;;5040169;28;20076;-89
2021/12/26 04:27:11;;;;;;;4.65;1.83;;;;;;;;;;5040523;28;20492;-90
2021/12/26 04:29:37;;;;;;;4.53;1.83;;;;;;;;;;5025582;28;20041;-89
2021/12/26 04:32:03;;;;;;;4.53;1.50;;;;;;;;;;5056765;28;20041;-90
2021/12/26 04:34:29;;;;;;;5.10;1.92;;;;;;;;;;5040553;28;20396;-90
2021/12/26 04:36:55;;;;;;;4.60;2.13;;;;;;;;;;5056216;28;20133;-89
2021/12/26 04:39:21;;;;;;;7.80;1.70;;;;;;;;;;5056169;28;20041;-89
2021/12/26 04:41:47;;;;;;;4.10;1.58;;;;;;;;;;5055850;28;20056;-89
2021/12/26 04:44:13;;;;;;;5.00;1.77;;;;;;;;;;5038606;28;20127;-89
2021/12/26 04:46:40;;;;;;;5.70;2.15;;;;;;;;;;5038755;28;20047;-88
2021/12/26 04:49:06;;;;;;;5.15;1.70;;;;;;;;;;5039603;28;20037;-89
2021/12/26 04:51:35;;;;;;;5.57;1.73;;;;;;;;;;5055753;28;20087;-89
2021/12/26 04:54:01;;;;;;;6.00;2.03;;;;;;;;;;5041368;28;20041;-89
2021/12/26 04:56:30;;;;;;;6.13;1.92;;;;;;;;;;5060119;28;20513;-88
2021/12/26 04:58:56;;;;;;;6.80;2.08;;;;;;;;;;5034698;28;20041;-89
2021/12/26 05:01:22;;;;;;;6.18;1.70;;;;;;;;;;5055820;28;20056;-89
2021/12/26 05:03:54;;;;;;;4.78;1.73;;;;;;;;;;5072695;28;20109;-87
2021/12/26 05:06:20;;;;;;;4.95;1.92;;;;;;;;;;5055242;28;20046;-89
2021/12/26 05:08:46;;;;;;;5.28;1.60;;;;;;;;;;5056107;28;20037;-88
2021/12/26 05:11:12;;;;;;;6.75;1.80;;;;;;;;;;5038656;28;20081;-88
2021/12/26 05:13:38;;;;;;;4.55;2.22;;;;;;;;;;5066832;22;20033;-55
2021/12/26 05:16:04;;;;;;;6.93;1.80;;;;;;;;;;5051035;28;20040;-57
2021/12/26 05:18:30;;;;;;;4.72;1.80;;;-5.50;99.90;;;;;;5051292;28;20048;-58
2021/12/26 05:20:56;;;;;;;5.03;1.83;;;;;;;;;;5049908;28;20033;-56
2021/12/26 05:23:23;;;;;;;8.35;2.47;;;-5.60;99.90;;;;;;5050380;28;20648;-53
2021/12/26 05:25:49;;;;;;;5.63;2.10;;;;;;;;;;5045375;28;20360;-57
2021/12/26 05:28:16;;;;;;;7.38;1.90;;;;;;;;;;5051239;28;20125;-56
2021/12/26 05:30:42;;;;;;;5.57;1.90;;;;;;;;;;5050872;28;20153;-55
2021/12/26 05:33:08;;;;;;;5.47;1.70;;;;;;;;;;5050888;28;20044;-56
2021/12/26 05:35:34;;;;;;;5.15;2.03;;;-5.70;99.90;;;;;;5050065;28;20065;-56
2021/12/26 05:38:00;;;;;;;5.72;2.00;;;-5.60;99.90;;;;;;5032585;28;20040;-56
2021/12/26 05:40:26;;;;;;;4.82;1.80;;;;;;;;;;5049651;28;20081;-56
2021/12/26 05:42:52;;;;;;;6.28;2.10;;;-5.90;99.90;;;;;;5051273;28;20621;-55
2021/12/26 05:45:18;;;;;;;5.97;2.20;;;;;;;;;;5049754;28;20037;-57
2021/12/26 05:47:45;;;;;;;6.70;2.47;;;;;;;;;;5051095;28;20051;-54
2021/12/26 05:50:13;;;;;;;6.05;2.03;;;;;;;;;;5049484;28;20067;-56
2021/12/26 05:52:39;;;;;;;6.32;1.70;;;-5.70;99.90;;;;;;5050426;28;20052;-56
2021/12/26 05:55:06;;;;;;;4.43;1.58;;;;;;;;;;5050156;28;20502;-53
2021/12/26 05:57:33;;;;;;;4.75;1.70;;;;;;;;;;5051135;28;20127;-54
2021/12/26 05:59:59;;;;;;;5.00;1.80;;;;;;;;;;5050953;28;20049;-54
2021/12/26 06:02:25;;;;;;;5.70;2.05;;;;;;;;;;5032979;28;20568;-55
2021/12/26 06:04:51;;;;;;;8.50;2.95;;;;;;;;;;5048704;28;20044;-56
2021/12/26 06:07:17;;;;;;;6.70;1.70;;;;;;;;;;5050752;28;20037;-56
2021/12/26 06:09:44;;;;;;;5.07;1.63;;;;;;;;;;5049685;28;20575;-58
2021/12/26 06:12:10;;;;;;;5.03;1.67;;;;;;;;;;5043679;28;20041;-56
2021/12/26 06:14:36;;;;;;;6.93;2.00;;;;;;;;;;5049232;28;20552;-56
2021/12/26 06:17:02;;;;;;;5.05;1.73;;;;;;;;;;5050177;28;20049;-57
2021/12/26 06:19:28;;;;;;;5.25;2.03;;;;;;;;;;5048640;28;20597;-56
2021/12/26 06:21:54;;;;;;;7.25;2.10;;;;;;;;;;5049849;28;20092;-57
2021/12/26 06:24:20;;;;;;;4.85;1.95;;;;;;;;;;5031652;28;20707;-54
2021/12/26 06:26:47;;;;;;;7.45;1.95;;;-5.40;99.90;;;;;;5050057;28;20116;-53
2021/12/26 06:29:13;;;;;;;4.65;1.80;;;;;;;;;;5049407;28;20044;-57
2021/12/26 06:31:39;;;;;;;5.55;2.55;;;;;;;;;;5049317;28;20048;-58
2021/12/26 06:34:05;;;;;;;5.30;2.45;;;;;;;;;;5063271;28;20040;-55
2021/12/26 06:36:31;;;;;;;4.95;1.80;;;;;;;;;;5048504;28;20037;-54
2021/12/26 06:38:57;;;;;;;4.93;1.90;;;;;;;;;;5049740;28;20133;-54
2021/12/26 06:41:25;;;;;;;5.57;2.40;;;-5.50;99.90;;;;;;5049767;28;20060;-53
2021/12/26 06:43:51;;;;;;;7.80;2.08;;;;;;;;;;5032756;28;20028;-53
2021/12/26 06:46:17;;;;;;;5.05;1.90;;;-5.50;99.90;;;;;;5029761;28;20111;-53
2021/12/26 06:48:43;;;;;;;6.93;1.70;;;;;;;;;;5049346;28;20091;-53
2021/12/26 06:51:09;;;;;;;5.88;1.70;;;;;;;;;;5049003;28;20033;-54
2021/12/26 06:53:38;;;;;;;6.60;2.33;;;;;;;;;;5049976;28;20036;-52
2021/12/26 06:56:05;;;;;;;6.28;2.08;;;;;;;;;;5031297;28;20049;-52
2021/12/26 06:58:31;;;;;;;6.05;1.92;;;;;;;;;;5048636;28;20128;-57
2021/12/26 07:00:57;;;;;;;4.88;1.83;;;;;;;;;;5049376;28;20120;-53
2021/12/26 07:03:23;;;;;;;5.70;1.77;;;;;;;;;;5049334;28;20132;-55
2021/12/26 07:05:49;;;;;;;4.60;1.73;;;;;;;;;;5048674;28;20463;-55
2021/12/26 07:08:15;;;;;;;6.45;1.80;;;;;;;;;;5048673;28;20095;-53
2021/12/26 07:10:41;;;;;;;6.15;1.95;;;-5.60;99.90;;;;;;5049430;28;20036;-52
2021/12/26 07:13:07;;;;;;;6.32;2.38;;;;;;;;;;5049384;28;20028;-53
2021/12/26 07:15:33;;;;;;;5.03;2.10;;;;;;;;;;5029944;28;20416;-53
2021/12/26 07:17:59;;;;;;;4.97;1.95;;;-5.70;99.90;;;;;;5048603;28;20044;-53
2021/12/26 07:20:25;;;;;;;5.53;1.90;;;;;;;;;;5049891;28;20469;-54
2021/12/26 07:22:51;;;;;;;5.25;1.88;;;;;;;;;;5048743;28;20046;-55
2021/12/26 07:25:17;;;;;;;5.53;1.80;;;;;;;;;;5048650;28;20036;-55
2021/12/26 07:27:43;;;;;;;5.28;1.83;;;;;;;;;;5048326;28;20059;-57
2021/12/26 07:30:10;;;;;;;7.90;2.25;;;;;;;;;;5047509;28;20521;-55
2021/12/26 07:32:36;;;;;;;6.18;2.30;;;;;;;;;;5046107;28;20102;-54
2021/12/26 07:35:02;;;;;;;6.30;2.90;;;;;;;;;;5046365;28;20037;-55
2021/12/26 07:37:28;;;;;;;5.57;2.40;;;;;;;;;;5045956;28;20048;-54
2021/12/26 07:39:58;;;;;;;5.63;2.28;;;;;;;;;;5044981;28;20072;-56
2021/12/26 07:42:24;;;;;;;7.50;2.80;;;;;;;;;;5046993;28;20049;-58
2021/12/26 07:44:50;;;;;;;6.82;2.92;;;;;;;;;;5031028;28;20426;-55
2021/12/26 07:47:16;;;;;;;5.78;2.20;;;;;;;;;;5034915;28;20048;-53
2021/12/26 07:49:41;;;;;;;6.88;2.40;;;-5.70;99.90;;;;;;5051828;28;20088;-54
2021/12/26 07:52:15;;;;;;;5.60;2.33;;;-5.30;99.90;;;;;;5052031;28;20044;-53
2021/12/26 07:54:42;;;;;;;6.93;2.20;;;;;;;;;;5051789;28;20048;-53
2021/12/26 07:57:09;;;;;;;8.95;2.53;;;;;;;;;;5035587;28;20049;-55
2021/12/26 07:59:35;;;;;;;6.05;2.67;;;;;;;;;;5047848;28;20363;-58
2021/12/26 08:02:01;;;;;;;7.43;3.08;;;;;;;;;;5047686;28;20049;-54
2021/12/26 08:04:27;;;;;;;6.50;2.45;;;;;;;;;;5051968;28;20040;-54
2021/12/26 08:06:53;;;;;;;6.25;2.78;;;;;;;;;;5050781;28;20029;-55
2021/12/26 08:09:19;;;;;;;7.10;2.88;;;;;;;;;;5050400;28;20044;-51
2021/12/26 08:11:46;;;;;;;7.03;2.75;;;;;;;;;;5049925;28;20127;-51
2021/12/26 08:14:12;;;;;;;6.03;2.05;;;;;;;;;;5030186;28;20041;-51
2021/12/26 08:16:38;;;;;;;5.70;2.38;;;;;;;;;;5045125;28;20147;-51
2021/12/26 08:19:06;;;;;;;8.10;2.60;;;-5.60;99.90;;;;;;5035425;28;20041;-52
2021/12/26 08:21:32;;;;;;;7.07;2.22;;;;;;;;;;5048219;28;20033;-51
2021/12/26 08:23:58;;;;;;;6.38;2.95;;;;;;;;;;5042951;28;20048;-51
2021/12/26 08:26:24;;;;;;;5.90;2.50;;;;;;;;;;5040467;28;20033;-53
2021/12/26 08:28:50;;;;;;;8.50;2.60;;;-5.50;99.90;;;;;;5032932;28;20098;-52
2021/12/26 08:31:17;;;;;;;6.45;2.88;;;-5.40;99.90;;;;;;5033174;28;20419;-52
2021/12/26 08:34:04;;;;;;;9.35;2.55;;;;;;;;;;5033449;28;20710;-57
2021/12/26 08:36:30;;;;;;;6.07;2.90;;;;;;;;;;5043629;28;20088;-57
2021/12/26 08:38:56;;;;;;;7.38;2.60;;;;;;;;;;5046841;28;20083;-57
2021/12/26 08:41:23;;;;;;;6.30;2.78;;;;;;;;;;5028492;28;20379;-56
2021/12/26 08:43:49;;;;;;;7.40;3.33;;;;;;;;;;5050457;28;20526;-54
2021/12/26 08:46:15;;;;;;;9.02;3.13;;;-5.00;99.90;;;;;;5048729;28;20033;-57
2021/12/26 08:48:41;;;;;;;6.60;2.58;;;;;;;;;;5051492;28;20033;-54
2021/12/26 08:51:07;;;;;;;7.53;2.92;;;;;;;;;;5048235;28;20044;-55
2021/12/26 08:53:33;;;;;;;7.38;2.63;;;;;;;;;;5049053;28;20418;-52
2021/12/26 08:55:59;;;;;;;6.32;2.85;;;;;;;;;;5045876;28;20406;-54
2021/12/26 08:58:25;;;;;;;6.55;3.40;;;;;;;;;;5048467;28;20072;-52
2021/12/26 09:00:51;;;;;;;7.70;2.80;;;;;;;;;;5047804;28;20052;-52
2021/12/26 09:03:17;;;;;;;7.70;3.15;;;;;;;;;;5048659;28;20045;-52
2021/12/26 09:05:43;;;;;;;5.30;2.58;;;;;;;;;;5049955;28;20041;-52
2021/12/26 09:08:10;;;;;;;5.45;2.50;;;;;;;;;;5048918;28;20044;-52
2021/12/26 09:10:37;;;;;;;8.50;3.58;;;;;;;;;;5042847;28;20054;-52
2021/12/26 09:13:04;;;;;;;6.43;2.80;;;;;;;;;;5044951;28;20060;-51
2021/12/26 09:15:30;;;;;;;6.00;2.67;;;;;;;;;;5047489;28;20052;-54
2021/12/26 09:17:56;;;;;;;7.00;2.78;;;;;;;;;;5041437;28;20170;-54
2021/12/26 09:20:23;;;;;;;6.20;2.70;;;-4.00;99.90;;;;;;5029992;28;20037;-55
2021/12/26 09:22:49;;;;;;;7.15;2.92;;;;;;;;;;5025961;28;20049;-54
2021/12/26 09:25:15;;;;;;;7.47;2.83;;;;;;;;;;5029928;28;20530;-53
2021/12/26 09:27:41;;;;;;;6.05;2.58;;;;;;;;;;5035973;28;20480;-52
2021/12/26 09:30:08;;;;;;;8.20;2.85;;;;;;;;;;5041514;28;20481;-55
2021/12/26 09:32:34;;;;;;;5.57;2.75;;;-4.20;99.90;;;;;;5039341;28;20139;-55
2021/12/26 09:35:00;;;;;;;7.18;2.95;;;-4.00;99.90;;;;;;5036793;28;20041;-55
2021/12/26 09:37:26;;;;;;;8.75;3.58;;;-4.10;99.90;;;;;;5046294;28;20067;-54
2021/12/26 09:39:53;;;;;;;6.20;2.50;;;;;;;;;;5030115;28;20037;-54
2021/12/26 09:42:19;;;;;;;6.45;2.60;;;-3.80;99.90;;;;;;5042298;28;20095;-55
2021/12/26 09:44:45;;;;;;;6.40;2.17;;;;;;;;;;5047301;28;20056;-55
2021/12/26 09:47:11;;;;;;;5.97;2.65;;;;;;;;;;5049197;28;20494;-55
2021/12/26 09:49:37;;;;;;;7.47;2.95;;;-3.70;99.90;;;;;;5050458;28;20128;-52
2021/12/26 09:52:04;;;;;;;5.60;2.53;;;;;;;;;;5049447;28;20527;-53
2021/12/26 09:54:29;;;;;;;5.97;2.70;;;-3.50;99.90;;;;;;5041556;28;20041;-55
2021/12/26 09:56:55;;;;;;;6.82;3.35;;;;;;;;;;5029983;28;20111;-54
2021/12/26 09:59:23;;;;;;;6.88;2.78;;;;;;;;;;5047459;28;20040;-55
2021/12/26 10:01:51;;;;;;;6.47;2.72;;;;;;;;;;5030490;28;20041;-55
2021/12/26 10:04:34;;;;;;;6.07;2.92;;;-2.80;99.90;;;;;;5047926;28;20411;-54
2021/12/26 10:07:13;;;;;;;7.28;3.15;;;-3.20;99.90;;;;;;5047020;28;20064;-54
2021/12/26 10:09:46;;;;;;;7.60;2.90;;;-3.20;99.90;;;;;;5024154;28;20087;-52
2021/12/26 10:12:13;;;;;;;5.97;2.88;;;;;;;;;;5048169;28;20041;-52
2021/12/26 10:14:43;;;;;;;5.72;2.65;;;-2.80;99.90;;;;;;5047869;28;20040;-53
2021/12/26 10:17:10;;;;;;;7.18;2.67;;;;;;;;;;5041704;28;20037;-52
2021/12/26 10:19:41;;;;;;;7.95;3.35;;;;;;;;;;5040413;28;20385;-52
2021/12/26 10:22:08;;;;;;;5.93;2.85;;;-2.20;99.90;;;;;;5026852;28;20045;-52
2021/12/26 10:24:42;;;;;;;6.65;2.90;;;;;;;;;;5010864;28;20043;-51
2021/12/26 10:27:08;;;;;;;5.88;2.83;;;;;;;;;;5045931;28;20398;-54
2021/12/26 10:29:38;;;;;;;6.95;2.85;;;;;;;;;;5048386;28;20051;-52
2021/12/26 10:32:04;;;;;;;6.50;3.25;;;;;;;;;;5046250;28;20167;-51
2021/12/26 10:34:30;;;;;;;6.82;3.28;;;;;;;;;;5047826;28;20731;-52
2021/12/26 10:36:57;;;;;;;7.10;3.13;;;;;;;;;;5046106;28;20041;-52
2021/12/26 10:39:31;;;;;;;5.95;2.67;;;;;;;;;;5047656;28;20142;-54
2021/12/26 10:42:03;;;;;;;7.40;2.88;;;-2.20;99.90;;;;;;5048250;28;20040;-53
2021/12/26 10:44:31;;;;;;;7.00;2.78;;;;;;;;;;5047530;28;20094;-52
2021/12/26 10:47:26;;;;;;;6.82;3.00;;;;;;;;;;5048548;28;20101;-51
2021/12/26 10:50:06;;;;;;;5.70;2.92;;;;;;;;;;5031293;28;20124;-53
2021/12/26 10:52:37;;;;;;;7.20;3.40;;;;;;;;;;5012845;28;20040;-52
2021/12/26 10:55:15;;;;;;;7.82;3.35;;;-1.50;99.90;;;;;;5046853;28;20078;-55
2021/12/26 10:57:42;;;;;;;6.50;3.65;;;;;;;;;;5046771;28;20040;-52
2021/12/26 11:00:10;;;;;;;6.55;2.90;;;;;;;;;;5046037;28;20421;-54
2021/12/26 11:02:37;;;;;;;6.30;3.00;;;;;;;;;;5045349;28;20037;-54
2021/12/26 11:05:15;;;;;;;9.88;3.45;;;;;;;;;;5047537;28;20083;-52
2021/12/26 11:07:43;;;;;;;7.30;3.60;;;-1.00;99.90;;;;;;5048638;28;20073;-52
2021/12/26 11:10:10;;;;;;;6.97;2.85;;;;;;;;;;5047562;28;20029;-53
2021/12/26 11:12:38;;;;;;;6.10;3.42;;;;;;;;;;5045249;28;20562;-54
2021/12/26 11:15:04;;;;;;;7.45;3.30;;;;;;;;;;5115248;23;20452;-57
2021/12/26 11:17:31;;;;;;;8.20;3.40;;;;;;;;;;5081061;28;20282;-59
2021/12/26 11:19:57;;;;;;;7.55;3.42;;;;;;;;;;5111533;27;20074;-58
2021/12/26 11:22:24;;;;;;;6.60;3.22;;;;;;;;;;5110842;27;20075;-59
2021/12/26 11:24:53;;;;;;;7.05;3.67;;;;;;;;;;5095852;28;20516;-59
2021/12/26 11:27:19;;;;;;;6.57;3.10;;;;;;;;;;5113903;28;20539;-58
2021/12/26 11:29:48;;;;;;;7.63;3.60;;;;;;;;;;5113888;28;20036;-58
2021/12/26 11:32:14;;;;;;;6.32;3.30;;;;;;;;;;5115189;28;20043;-57
2021/12/26 11:34:40;;;;;;;7.93;3.50;;;;;;;;;;5115292;28;20036;-58
2021/12/26 11:37:06;;;;;;;8.13;4.05;;;;;;;;;;5115337;28;20040;-59
2021/12/26 11:39:32;;;;;;;7.28;3.83;;;-1.30;99.90;;;;;;5115621;28;20039;-59
2021/12/26 11:42:07;;;;;;;8.73;4.15;;;;;;;;;;5115577;28;20497;-59
2021/12/26 11:44:33;;;;;;;;;;;;;;;;;;5115553;28;20060;-57
2021/12/26 11:47:24;;;;;;;8.13;3.47;;;-0.60;99.90;;;;;;5115289;28;19919;-57
2021/12/26 11:50:01;;;;;;;7.82;4.05;;;;;;;;;;5103202;28;20386;-57
2021/12/26 11:52:40;;;;;;;6.90;3.28;;;;;;;;;;5097145;28;20052;-57
2021/12/26 11:55:10;;;;;;;6.30;3.50;;;;;;;;;;5115075;28;20039;-57
2021/12/26 11:57:59;;;;;;;8.25;4.03;;;;;;;;;;5115175;28;20048;-57
2021/12/26 12:00:26;;;;;;;11.93;4.30;;;;;;;;;;5068170;28;20071;-57
2021/12/26 12:02:54;;;;;;;8.85;3.75;;;;;;;;;;5115124;28;20036;-58
2021/12/26 12:05:21;;;;;;;8.40;3.67;;;;;;;;;;5103766;27;20062;-59
2021/12/26 12:08:10;;;;;;;7.35;3.28;;;;;;;;;;5091456;28;20043;-58
2021/12/26 12:10:45;;;;;;;7.60;3.67;;;-0.40;99.90;;;;;;5097195;27;20044;-57
2021/12/26 12:13:11;;;;;;;;;;;;;;;;;;5105858;27;20043;-58
2021/12/26 12:15:49;;;;;;;8.60;3.80;;;;;;;;;;5099829;27;19939;-57
2021/12/26 12:18:18;;;;;;;7.97;4.28;;;;;;;;;;5096438;27;20044;-58
2021/12/26 12:20:44;;;;;;;6.45;3.10;;;;;;;;;;5099892;27;20042;-58
2021/12/26 12:23:12;;;;;;;8.88;3.88;;;;;;;;;;5111852;27;20404;-58
2021/12/26 12:25:39;;;;;;;9.40;4.50;;;;;;;;;;5101221;28;20498;-57
2021/12/26 12:28:08;;;;;;;7.35;3.80;;;;;;;;;;5089538;28;20067;-58
2021/12/26 12:30:35;;;;;;;7.63;3.85;;;0.90;99.90;;;;;;5088031;28;20044;-58
2021/12/26 12:33:13;;;;;;;7.25;3.55;;;;;;;;;;5082745;28;20059;-58
2021/12/26 12:36:05;;;;;;;6.82;3.42;;;1.60;99.90;;;;;;5104784;27;20051;-56
2021/12/26 12:38:39;;;;;;;9.70;3.42;;;;;;;;;;5128651;27;20034;-58
2021/12/26 12:41:09;;;;;;;7.35;3.85;;;;;;;;;;5105262;27;20067;-57
2021/12/26 12:43:47;;;;;;;6.68;3.33;;;1.80;99.90;;;;;;5114041;27;20155;-56
2021/12/26 12:46:14;;;;;;;9.10;4.70;;;1.60;99.90;;;;;;5113062;28;20455;-57
2021/12/26 12:48:46;;;;;;;8.32;3.75;;;2.10;99.90;;;;;;5113799;28;20047;-58
2021/12/26 12:51:15;;;;;;;8.15;3.88;;;;;;;;;;5101118;27;20044;-57
2021/12/26 12:53:47;;;;;;;7.40;3.63;;;2.00;99.90;;;;;;5100524;28;20047;-57
2021/12/26 12:56:33;;;;;;;7.88;3.60;;;;;;;;;;5109853;28;20047;-58
2021/12/26 12:59:26;;;;;;;6.88;3.70;;;1.80;99.90;;;;;;5093968;28;20078;-59
2021/12/26 13:01:52;;;;;;;6.00;3.05;;;;;;;;;;5094633;27;20048;-58
2021/12/26 13:04:23;;;;;;;8.80;3.83;;;2.90;99.90;;;;;;5107253;28;20043;-58
2021/12/26 13:06:54;;;;;;;6.35;3.13;;;;;;;;;;5104935;28;20063;-58
2021/12/26 13:09:20;;;;;;;7.30;3.30;;;2.50;99.90;;;;;;5113403;28;20035;-59
2021/12/26 13:11:46;;;;;;;7.95;3.63;;;2.50;99.90;;;;;;5094626;28;20039;-59
2021/12/26 13:14:32;;;;;;;7.32;3.60;;;2.80;99.90;;;;;;5109517;28;20096;-59
2021/12/26 13:16:57;;;;;;;8.10;3.90;;;3.60;99.90;;;;;;5100008;28;20059;-59
2021/12/26 13:19:24;;;;;;;8.10;3.72;;;;;;;;;;5098855;28;20451;-57
2021/12/26 13:21:55;;;;;;;6.35;3.42;;;6.20;99.90;;;;;;5104848;28;20040;-57
2021/12/26 13:24:47;;;;;;;6.32;2.97;;;;;;;;;;5102278;28;20063;-58
2021/12/26 13:27:23;;;;;;;6.82;3.55;;;;;;;;;;5088576;28;20093;-59
2021/12/26 13:29:50;;;;;;;11.70;4.25;;;;;;;;;;5101981;28;20055;-58
2021/12/26 13:32:16;;;;;;;6.50;3.50;;;5.70;99.90;;;;;;5109885;28;20043;-59
2021/12/26 13:34:54;;;;;;;7.20;3.20;;;6.00;99.90;;;;;;5105257;28;20039;-58
2021/12/26 13:37:21;;;;;;;7.15;3.55;;;;;;;;;;5100585;28;20512;-58
2021/12/26 13:39:52;;;;;;;8.50;3.60;;;;;;;;;;5078357;28;20198;-58
2021/12/26 13:42:18;;;;;;;8.75;3.67;;;;;;;;;;5093873;28;20040;-59
2021/12/26 13:44:44;;;;;;;6.93;3.70;;;;;;;;;;5103022;28;20058;-58
2021/12/26 13:47:11;;;;;;;7.43;3.40;;;;;;;;;;5111057;28;20506;-59
2021/12/26 13:49:37;;;;;;;6.55;3.40;;;;;;;;;;5112526;28;20042;-60
2021/12/26 13:52:03;;;;;;;9.52;3.53;;;;;;;;;;5101369;28;20036;-60
2021/12/26 13:54:37;;;;;;;8.43;4.22;;;;;;;;;;5110962;28;20051;-59
2021/12/26 13:57:04;;;;;;;6.55;3.72;;;;;;;;;;5102680;28;20096;-59
2021/12/26 13:59:39;;;;;;;7.03;3.67;;;3.30;99.90;;;;;;5093256;28;20398;-59
2021/12/26 14:02:18;;;;;;;7.07;3.47;;;3.60;99.90;;;;;;5099876;28;20093;-58
2021/12/26 14:04:56;;;;;;;10.27;4.07;;;3.20;99.90;;;;;;5095452;28;20486;-60
2021/12/26 14:07:23;;;;;;;8.02;3.55;;;;;;;;;;5097675;28;20036;-59
2021/12/26 14:09:51;;;;;;;6.88;3.38;;;;;;;;;;5077512;28;20104;-59
2021/12/26 14:12:43;;;;;;;10.15;4.70;;;3.00;99.90;;;;;;5078256;28;20051;-60
2021/12/26 14:15:29;;;;;;;9.85;5.22;;;;;;;;;;5092891;28;21119;-60
2021/12/26 14:18:03;;;;;;;11.25;8.80;;;;;;;;;;5093490;28;20417;-59
2021/12/26 14:20:49;;;;;;;7.82;4.35;;;;;;;;;;5090833;28;20039;-60
2021/12/26 14:23:20;;;;;;;7.68;4.18;;;;;;;;;;5076194;28;20087;-59
2021/12/26 14:25:47;;;;;;;7.63;4.30;;;2.50;99.90;;;;;;5078580;28;20042;-59
2021/12/26 14:28:17;;;;;;;9.05;4.82;;;;;;;;;;5102726;27;20035;-60
2021/12/26 14:30:44;;;;;;;8.63;4.60;;;;;;;;;;5116078;27;20047;-60
2021/12/26 14:33:11;;;;;;;7.00;3.67;;;;;;;;;;5106890;28;20039;-60
2021/12/26 14:35:37;;;;;;;6.72;3.72;;;1.80;99.90;;;;;;5078364;28;20119;-60